APL New Jersey — A8NM6 — position and weather

sailwx.info

Track history (hours):
 
Tides and Currents Weather Stations Pressure Air Temp Water Temp Dewpoint Dewpoint Depression Visibility Wind Speed Wind Dir Waves Ship Positions

APL New Jersey

Last reported at 2015-May-26 01:32 UTC. Time now 2015-May-30 12:37 UTC.
Position N 35°39' W 124°33'.

Length 293 m; draft 12.5 m.

Type: Cargo ship. MMSI: 636013522.

Date/timePositionNaut miles runAvg speedWind from/ knotsBaromVisibWave heightAir tempDewpointWater temp
2015-May-26 01:32N 35°39' W 124°33'1816.7
2015-May-26 00:29N 35°32' W 124°13'2117.3
2015-May-25 23:15N 35°24' W 123°49'1217.2
2015-May-25 22:32N 35°20' W 123°35'1716.8
2015-May-25 21:33N 35°13' W 123°16'1716.7
2015-May-25 20:33N 35°07' W 122°57'3416.9
2015-May-25 18:33N 34°54' W 122°19'2216.9
2015-May-25 17:17N 34°46' W 121°54'6617.3
2015-May-25 13:27N 34°23' W 120°38'12610.2
2015-May-25 01:05N 33°41' W 118°15'2 3.8
2015-May-25 00:33N 33°43' W 118°16'1 0.9
2015-May-24 23:31N 33°44' W 118°15'0 0.0
2015-May-24 22:28N 33°44' W 118°15'0 0.0
2015-May-24 21:22N 33°44' W 118°15'0 0.0
2015-May-24 20:28N 33°44' W 118°15'0 0.0
2015-May-24 17:22N 33°44' W 118°15'0 0.0
2015-May-24 15:28N 33°44' W 118°15'0 0.0
2015-May-24 08:28N 33°44' W 118°15'0 0.0
2015-May-24 04:10N 33°44' W 118°15'0 0.0
2015-May-24 03:31N 33°44' W 118°15'0 0.0
2015-May-24 02:31N 33°44' W 118°15'0 0.0
2015-May-24 01:31N 33°44' W 118°15'0 0.0
2015-May-24 00:31N 33°44' W 118°15'0 0.0
2015-May-23 23:31N 33°44' W 118°15'0 0.0
2015-May-23 22:31N 33°44' W 118°15'0 0.0
2015-May-23 21:31N 33°44' W 118°15'0 0.0
2015-May-23 20:31N 33°44' W 118°15'0 0.0
2015-May-23 19:31N 33°44' W 118°15'0 0.0
2015-May-23 18:31N 33°44' W 118°15'0 0.0
2015-May-23 17:31N 33°44' W 118°15'0 0.0
2015-May-23 16:31N 33°44' W 118°15'0 0.1
2015-May-23 15:31N 33°44' W 118°15'0 0.1
2015-May-23 14:31N 33°44' W 118°15'0 0.0
2015-May-23 13:31N 33°44' W 118°15'2 1.5
2015-May-23 12:28N 33°42' W 118°15'15 7.4
2015-May-23 10:29N 33°29' W 118°07'8 8.1
2015-May-23 09:33N 33°22' W 118°04'9 8.9
2015-May-23 08:33N 33°14' W 118°00'9 9.2
2015-May-23 07:33N 33°05' W 117°57'10 9.8
2015-May-23 06:33N 32°57' W 117°51'1110.8
2015-May-23 05:33N 32°46' W 117°47'1515.0
2015-May-23 04:34N 32°32' W 117°42'1514.7
2015-May-23 03:34N 32°18' W 117°38'  
Track history (hours):
 
Tides and Currents Weather Stations Pressure Air Temp Water Temp Dewpoint Dewpoint Depression Visibility Wind Speed Wind Dir Waves Ship Positions

APL New Jersey

Last reported at 2015-May-26 01:32 UTC. Time now 2015-May-30 12:37 UTC.
Position N 35°39' W 124°33'.

Length 293 m; draft 12.5 m.

Type: Cargo ship. MMSI: 636013522.

Date/timePositionNaut miles runAvg speedWind from/ knotsBaromVisibWave heightAir tempDewpointWater temp
2015-May-26 01:32N 35°39' W 124°33'1816.7
2015-May-26 00:29N 35°32' W 124°13'2117.3
2015-May-25 23:15N 35°24' W 123°49'1217.2
2015-May-25 22:32N 35°20' W 123°35'1716.8
2015-May-25 21:33N 35°13' W 123°16'1716.7
2015-May-25 20:33N 35°07' W 122°57'3416.9
2015-May-25 18:33N 34°54' W 122°19'2216.9
2015-May-25 17:17N 34°46' W 121°54'6617.3
2015-May-25 13:27N 34°23' W 120°38'12610.2
2015-May-25 01:05N 33°41' W 118°15'2 3.8
2015-May-25 00:33N 33°43' W 118°16'1 0.9
2015-May-24 23:31N 33°44' W 118°15'0 0.0
2015-May-24 22:28N 33°44' W 118°15'0 0.0
2015-May-24 21:22N 33°44' W 118°15'0 0.0
2015-May-24 20:28N 33°44' W 118°15'0 0.0
2015-May-24 17:22N 33°44' W 118°15'0 0.0
2015-May-24 15:28N 33°44' W 118°15'0 0.0
2015-May-24 08:28N 33°44' W 118°15'0 0.0
2015-May-24 04:10N 33°44' W 118°15'0 0.0
2015-May-24 03:31N 33°44' W 118°15'0 0.0
2015-May-24 02:31N 33°44' W 118°15'0 0.0
2015-May-24 01:31N 33°44' W 118°15'0 0.0
2015-May-24 00:31N 33°44' W 118°15'0 0.0
2015-May-23 23:31N 33°44' W 118°15'0 0.0
2015-May-23 22:31N 33°44' W 118°15'0 0.0
2015-May-23 21:31N 33°44' W 118°15'0 0.0
2015-May-23 20:31N 33°44' W 118°15'0 0.0
2015-May-23 19:31N 33°44' W 118°15'0 0.0
2015-May-23 18:31N 33°44' W 118°15'0 0.0
2015-May-23 17:31N 33°44' W 118°15'0 0.0
2015-May-23 16:31N 33°44' W 118°15'0 0.1
2015-May-23 15:31N 33°44' W 118°15'0 0.1
2015-May-23 14:31N 33°44' W 118°15'0 0.0
2015-May-23 13:31N 33°44' W 118°15'2 1.5
2015-May-23 12:28N 33°42' W 118°15'15 7.4
2015-May-23 10:29N 33°29' W 118°07'8 8.1
2015-May-23 09:33N 33°22' W 118°04'9 8.9
2015-May-23 08:33N 33°14' W 118°00'9 9.2
2015-May-23 07:33N 33°05' W 117°57'10 9.8
2015-May-23 06:33N 32°57' W 117°51'1110.8
2015-May-23 05:33N 32°46' W 117°47'1515.0
2015-May-23 04:34N 32°32' W 117°42'1514.7
2015-May-23 03:34N 32°18' W 117°38'  

Dump ship's entire track history